Dash Point, Washington
Current Conditions -  °F | °C
As of 1:53 AM on Sunday 26 Oct 2014 (Local Time) from KTIW Reporting Station
Scattered Clouds Scattered Clouds  
Wind Chill: 51°   Ceiling: Unl
Heat Index: 51°   Visibility: 10mi
Dew Point: 45°   Wind: 17mph
Humidity: 80%   Direction: 200°SSW
Pressure: 29.83"   Gusts: 23mph
Location:  47.2894°N, 122.391°W
Report Text: KTIW 260853Z AUTO 20015G20KT 10SM FEW070 SCT085 SCT110 11/07 A2983 RMK AO2 RAB16E25 SLP103 P0000 60000 T01060072 51041
Loading
Personal Weather Stations






























Interactive Weather Map
Tropical Storm Tracking
New forecast layout! Learn more

10-Day Weather Forecast

Advertisements
Track Severe Weather on mobile